Timeline UpdatesTrip UpdatesNews PostsPvt PostsTravel TipsAdmin PostsConv PostsFollowed PostsChat RequestsBlog PostsPNR Posts

Disclaimer
Search
 
 
Mon Apr 21, 2014 20:40:27 ISTHomeTrainsΣChainsAtlasPNRForumGalleryNewsFAQTripsMembersLoginFeedback
No Recent News for this Train
Other Trains in the News **new
Latest...
⇐ Return Journey: Train# 59705

59706/Jaipur Jn-Suratgarh Jn Passenger (UnReserved)

Sep 28 2013 (6:10PM)
Change Departure Station:
Change Arrival Station:
Post a Train Travel TipPost a Train Travel Tip **new
Post a Comment/Question/Picture/VideoPost a Comment/Question/Picture/Video
Pantry/Catering
✕ NO Pantry Car
✕ NO Catering
Loco/Rake Reversals
MTD/Merta Road Junction (4);
RSA - Rake Sharing
Rake/Coach Composition
Loco
News    PNR    Forum    Time-Table    Availability    Fare Chart    Map    Arr/Dep History    Trips    Gallery    ΣChains    X/O    Timeline    
Travel Time: 1h 28m    7 halts    Distance: 62 km    Avg Speed: 42 km/hr
Type: Passenger
Zone: NWR/North Western
Departs @ 05:00 (Avg on time)
Platform# 5
SMTWTFS
Jaipur Junction/JP 
Arrives @ 06:28 (Avg 11m late)
Platform# ???
SMTWTFS
Sambhar Lake/SBR 

7 halts. 9 intermediate Stations between Jaipur Junction and Sambhar Lake

Show ALL intermediate Stations  Show Old Time-Table

#CodeStation NameX/OArrivesAvgDepartsAvgHaltPFDay#KmSpeedElevZoneAddress
1JP»Jaipur Junction (7)»  -05:00+0510.053434mNWRJaipur, Rajasthan
2KKUKanakpura  05:10+605:11+61m--18.958429mNWRJaipur, Rajasthan
3DNKDhanakya  05:21+605:22+61m--118.664418mNWRJaipur, Rajasthan
4BOBSBobas  05:32+605:33+61m--129.356396mNWRJaipur, Rajasthan
5JOBAsalpur Jobner  05:41+605:42+61m--136.748379mNWRJaipur, Rajasthan
6DHNDDhindaX  05:49+505:50+51m--142.440386mNWRMDR 59, Rajasthan
7HDAHirnoda  05:56+505:57+51m--146.429400mNWRJaipur, Rajasthan
8FLPhulera Junction (5)  06:15-106:20+05m--155.154386mNWRPhulera, Rajasthan
9SBR•Sambhar Lake•  06:28+1106:29+131m--162.251368mNWRSambhar, Rajasthan
10GAGudha (1)  06:38+1306:40+152m1169.971365mNWRPhulera, Rajasthan
11GVMRGovindi MarwarX  06:49+1706:51+242m--180.669373mNWRSambhar Lake, Rajasthan
12NACNawa City  06:59+2607:01+272m--189.844390mNWRNawa, Rajasthan
13NYKNaya Kharadia  07:10+2607:11+381m--196.443375mNWRMakrana, Rajasthan
14THMRThathana Mithri  07:17+4007:18+401m--1100.757388mNWRNawa City, Rajasthan
15KMNCKuchaman CityO  07:23+4007:25+432m--1105.527404mNWRPalari, Rajasthan
16MKNMakrana Junction (2)  07:57+2507:59+272m--1119.734423mNWRMakrana, Rajasthan
17BOWBorawar  08:08+2708:10+292m--1124.879403mNWRBesrol, Rajasthan
18BSRLBesroliX  08:19+3008:21+352m--1136.768378mNWRNagaur, Rajasthan
19GCHGachhipuraX  08:31+3608:33+392m--1148.060362mNWRNagaur, Rajasthan
20DNADegana Junction (4)  08:48+3708:51+403m--1163.163339mNWRDegana, Rajasthan
21JACNJalsu Nanak  08:58+4108:59+411m--1170.456331mNWRREN, Rajasthan
22JACJalsuX  09:05+4109:07+462m--1176.068321mNWRNagaur, Rajasthan
23RENRen  09:19+4609:21+472m--1189.715307mNWRNagaur, Rajasthan
24KQWKheduli  09:29+4709:31+472m--1191.766307mNWRRen, Rajasthan
25MTDMerta Road Junction (4)X09:45+4310:05+5020m--1207.141322mNWRPhalodi, Rajasthan
26MCPEMarwar Chapri  10:15+5310:17+532m--1213.958317mNWRKheduli, Rajasthan
27DSLDeswal  10:25+5310:27+532m--1221.760325mNWRNagaur, Rajasthan
28KJWKhajwana  10:36+5310:38+542m--1230.767329mNWRKhajwana, Rajasthan
29MDWMarwar Mundwa  10:52+5510:54+1:002m--1246.497334mNWRMundwa, Rajasthan
30NGONagaurX  11:05+5811:07+1:002m--1264.149299mNWRNagaur, Rajasthan
31BWSBadwasi  11:25+1:0211:27+1:022m--1278.762276mNWRMDR 69, Rajasthan
32ALAIAlaiX  11:35+1:0311:37+1:062m--1286.969289mNWRAlai, Rajasthan
33SBLJShri Balaji  11:47+1:0511:49+1:052m--1298.542296mNWRNational Highway 89, Rajasthan
34CLOChilo  11:54+1:0511:56+1:072m--1302.069304mNWRNational Highway 89, Rajasthan
35NOKGarhnokhaX  12:08+1:0712:10+1:072m--1315.76997mNWRNokha, Rajasthan
36SPOSurpura  12:25+1:0712:27+1:062m--1333.069286mNWRBikaner, Rajasthan
37DSODeshnoke (1)  12:40+1:0512:42+1:052m11347.956274mNWRDeshnok, Rajasthan
38PAEPalana  12:52+1:0712:54+1:102m--1357.212263mNWRBikaner, Rajasthan
39UMSUdramsar  13:40+3813:42+382m--1366.014241mNWRBikaner, Rajasthan
40BKNBikaner Junction (6)X  14:40+1215:00+1420m--1379.824226mNWRBikaner City, Rajasthan
41LGHLalgarh JunctionX  15:10+1415:12+152m--1383.756225mNWRBikaner, Rajasthan
42KNSRKanasar  15:25+1615:27+172m--1395.973209mNWRLalgarh, Rajasthan
43JMSJamsar  15:40+1615:42+172m--1411.657186mNWRBikaner, Rajasthan
44JDLJagdevwala  15:54+1715:56+182m--1422.945186mNWRNational Highway 15, Rajasthan
45BMNLBaman Wali HaltX  16:05+1816:06+181m--1429.665193mNWRBaman Wali, Rajasthan
46DHRRDhirera  16:13+1816:15+202m--1437.263190mNWRBikaner, Rajasthan
47DLCDalmera  16:24+2116:26+222m--1446.666203mNWRBikaner, Rajasthan
48LKSLunkaransar  16:38+2116:40+212m--1459.871194mNWRLunkaransar, Rajasthan
49NTZNathwana  16:50+2116:52+212m--1471.658197mNWRMalkisar, Rajasthan
50MLCMalkisar  17:02+2217:04+342m--1481.471198mNWRBikaner, Rajasthan
51MHJMahajan  17:19+3617:21+382m--1499.269199mNWRMahajan, Rajasthan
52ASArjansar  17:35+3817:37+392m--1515.366205mNWRBikaner, Rajasthan
53RJSRajiyasar  17:51+3917:53+392m--1530.862193mNWRBiradhwal, Rajasthan
54BDWLBiradhwal  18:06+3818:08+382m--1544.320189mNWRNational Highway 15, Rajasthan
55SOGSuratgarh Junction (5)  19:00+10---1561.8-170mNWRSuratgarh, Rajasthan
Scroll to Top
Scroll to Bottom